Time;durP1;ratioP1;P1;durP2;ratioP2;P2;SDS_P1;SDS_P2;PMS_P1;PMS_P2;Temp;Humidity;BMP_temperature;BMP_pressure;BME280_temperature;BME280_humidity;BME280_pressure;Samples;Min_cycle;Max_cycle;Signal;HPM_P1;HPM_P2
2023/04/27 00:02:00;;;;;;;;;;;3.90;99.90;;;;;;5077859;28;20058;-69
2023/04/27 00:04:26;;;;;;;;;;;4.00;99.90;;;;;;5076658;28;19928;-69
2023/04/27 00:06:52;;;;;;;;;;;4.10;99.90;;;;;;5076164;28;19932;-70
2023/04/27 00:09:17;;;;;;;;;;;4.10;99.90;;;;;;5067446;28;20262;-69
2023/04/27 00:11:43;;;;;;;;;;;4.20;99.90;;;;;;5057839;28;20303;-70
2023/04/27 00:14:09;;;;;;;;;;;4.20;99.90;;;;;;5057946;28;19924;-70
2023/04/27 00:16:34;;;;;;;;;;;4.30;99.90;;;;;;5058084;28;19925;-69
2023/04/27 00:19:00;;;;;;;;;;;4.40;99.90;;;;;;5076066;28;19924;-70
2023/04/27 00:21:26;;;;;;;;;;;4.50;99.90;;;;;;5059030;28;20344;-70
2023/04/27 00:23:52;;;;;;;;;;;4.50;99.90;;;;;;5041391;28;19928;-70
2023/04/27 00:26:19;;;;;;;;;;;4.50;99.90;;;;;;5076116;28;20010;-68
2023/04/27 00:28:45;;;;;;;;;;;4.50;99.90;;;;;;5075826;28;19925;-69
2023/04/27 00:31:11;;;;;;;;;;;4.40;99.90;;;;;;5058694;28;20417;-69
2023/04/27 00:33:37;;;;;;;;;;;4.40;99.90;;;;;;5076143;28;19963;-70
2023/04/27 00:36:02;;;;;;;;;;;4.40;99.90;;;;;;5065375;28;19925;-69
2023/04/27 00:38:29;;;;;;;;;;;4.50;99.90;;;;;;5069788;28;19936;-69
2023/04/27 00:41:01;;;;;;;;;;;4.50;99.90;;;;;;5061183;28;19925;-70
2023/04/27 00:43:26;;;;;;;;;;;4.40;99.90;;;;;;5077025;28;20286;-70
2023/04/27 00:45:52;;;;;;;;;;;4.40;99.90;;;;;;5077569;28;20024;-69
2023/04/27 00:48:18;;;;;;;;;;;4.40;99.90;;;;;;5075858;28;20057;-69
2023/04/27 00:50:43;;;;;;;;;;;4.30;99.90;;;;;;5075509;28;20080;-69
2023/04/27 00:53:09;;;;;;;;;;;4.30;99.90;;;;;;5057371;28;19956;-70
2023/04/27 00:55:34;;;;;;;;;;;4.20;99.90;;;;;;5067579;28;20012;-71
2023/04/27 00:58:00;;;;;;;;;;;4.10;99.90;;;;;;5063099;28;19928;-70
2023/04/27 01:00:25;;;;;;;;;;;4.10;99.90;;;;;;5075342;28;19925;-70
2023/04/27 01:02:52;;;;;;;;;;;4.00;99.90;;;;;;5073556;28;20323;-70
2023/04/27 01:05:18;;;;;;;;;;;4.00;99.90;;;;;;5072889;28;19931;-70
2023/04/27 01:07:43;;;;;;;;;;;3.80;99.90;;;;;;5039331;28;20019;-70
2023/04/27 01:10:09;;;;;;;;;;;3.80;99.90;;;;;;5072848;28;20438;-70
2023/04/27 01:12:34;;;;;;;;;;;3.70;99.90;;;;;;5074542;28;19924;-69
2023/04/27 01:15:00;;;;;;;;;;;3.70;99.90;;;;;;5036935;28;19972;-69
2023/04/27 01:17:26;;;;;;;;;;;3.80;99.90;;;;;;5021368;28;19925;-69
2023/04/27 01:19:54;;;;;;;;;;;3.50;99.90;;;;;;5074804;28;20426;-70
2023/04/27 01:22:20;;;;;;;;;;;3.50;99.90;;;;;;5074132;28;19966;-69
2023/04/27 01:24:45;;;;;;;;;;;3.50;99.90;;;;;;5039943;28;19925;-69
2023/04/27 01:27:12;;;;;;;;;;;3.40;99.90;;;;;;5073488;28;19924;-69
2023/04/27 01:29:38;;;;;;;;;;;3.60;99.90;;;;;;5065167;28;20050;-70
2023/04/27 01:32:03;;;;;;;;;;;3.40;99.90;;;;;;5074849;28;20007;-70
2023/04/27 01:34:29;;;;;;;;;;;3.30;99.90;;;;;;5073772;28;19931;-69
2023/04/27 01:36:54;;;;;;;;;;;3.40;99.90;;;;;;5053850;28;19928;-75
2023/04/27 01:39:20;;;;;;;;;;;3.20;99.90;;;;;;5053243;28;19932;-70
2023/04/27 01:41:45;;;;;;;;;;;3.20;99.90;;;;;;5054653;28;20445;-70
2023/04/27 01:44:11;;;;;;;;;;;3.20;99.90;;;;;;5066857;28;19928;-70
2023/04/27 01:46:36;;;;;;;;;;;3.20;99.90;;;;;;5073205;28;19928;-70
2023/04/27 01:49:02;;;;;;;;;;;3.10;99.90;;;;;;5072837;28;19925;-70
2023/04/27 01:51:27;;;;;;;;;;;3.10;99.90;;;;;;5073780;28;19928;-70
2023/04/27 01:53:53;;;;;;;;;;;3.10;99.90;;;;;;5068569;28;20015;-70
2023/04/27 01:56:18;;;;;;;;;;;3.10;99.90;;;;;;5053844;28;20012;-70
2023/04/27 01:58:45;;;;;;;;;;;4.10;99.90;;;;;;5059496;28;20392;-70
2023/04/27 02:01:10;;;;;;;;;;;3.00;99.90;;;;;;5045041;28;20400;-70
2023/04/27 02:03:36;;;;;;;;;;;3.00;99.90;;;;;;5062810;28;19999;-69
2023/04/27 02:06:01;;;;;;;;;;;3.00;99.90;;;;;;5073953;28;19947;-70
2023/04/27 02:08:27;;;;;;;;;;;3.00;99.90;;;;;;5067495;28;20314;-70
2023/04/27 02:10:52;;;;;;;;;;;3.00;99.90;;;;;;5055289;28;20353;-70
2023/04/27 02:13:18;;;;;;;;;;;2.90;99.90;;;;;;5055153;28;20400;-70
2023/04/27 02:15:43;;;;;;;;;;;2.90;99.90;;;;;;5074310;28;19925;-70
2023/04/27 02:18:09;;;;;;;;;;;3.10;99.90;;;;;;5056760;28;20260;-70
2023/04/27 02:20:34;;;;;;;;;;;2.90;99.90;;;;;;5073448;28;20382;-70
2023/04/27 02:23:01;;;;;;;;;;;2.80;99.90;;;;;;5074379;28;20039;-69
2023/04/27 02:25:26;;;;;;;;;;;2.80;99.90;;;;;;5055135;28;19924;-70
2023/04/27 02:27:52;;;;;;;;;;;2.80;99.90;;;;;;5073496;28;19931;-69
2023/04/27 02:30:17;;;;;;;;;;;2.80;99.90;;;;;;5038103;28;19925;-69
2023/04/27 02:32:43;;;;;;;;;;;2.80;99.90;;;;;;5042705;28;19999;-69
2023/04/27 02:35:09;;;;;;;;;;;2.70;99.90;;;;;;5054229;28;19968;-69
2023/04/27 02:37:34;;;;;;;;;;;2.70;99.90;;;;;;5072070;28;19928;-69
2023/04/27 02:40:00;;;;;;;;;;;2.70;99.90;;;;;;5053258;28;19947;-69
2023/04/27 02:42:25;;;;;;;;;;;2.70;99.90;;;;;;5053304;28;20464;-69
2023/04/27 02:44:51;;;;;;;;;;;2.60;99.90;;;;;;5066209;28;19928;-69
2023/04/27 02:47:16;;;;;;;;;;;2.70;99.90;;;;;;5066260;28;19932;-69
2023/04/27 02:49:42;;;;;;;;;;;2.60;99.90;;;;;;5059716;28;20492;-69
2023/04/27 02:52:08;;;;;;;;;;;2.60;99.90;;;;;;5055045;28;20282;-69
2023/04/27 02:54:33;;;;;;;;;;;2.60;99.90;;;;;;5066961;28;19932;-69
2023/04/27 02:57:00;;;;;;;;;;;2.60;99.90;;;;;;5054498;28;19999;-70
2023/04/27 02:59:25;;;;;;;;;;;2.50;99.90;;;;;;5066446;28;19971;-70
2023/04/27 03:01:51;;;;;;;;;;;2.50;99.90;;;;;;5052656;28;19990;-69
2023/04/27 03:04:16;;;;;;;;;;;2.50;99.90;;;;;;5055929;28;20606;-69
2023/04/27 03:06:42;;;;;;;;;;;2.50;99.90;;;;;;5072492;28;20267;-69
2023/04/27 03:09:09;;;;;;;;;;;2.50;99.90;;;;;;5072292;28;20000;-69
2023/04/27 03:11:35;;;;;;;;;;;2.40;99.90;;;;;;5072001;28;20295;-69
2023/04/27 03:14:01;;;;;;;;;;;2.40;99.90;;;;;;5054277;28;19972;-69
2023/04/27 03:16:26;;;;;;;;;;;2.40;99.90;;;;;;5050579;28;19971;-69
2023/04/27 03:18:52;;;;;;;;;;;2.40;99.90;;;;;;5072015;28;19924;-69
2023/04/27 03:21:18;;;;;;;;;;;2.40;99.90;;;;;;5053436;28;19981;-69
2023/04/27 03:23:43;;;;;;;;;;;2.30;99.90;;;;;;5066507;28;19925;-69
2023/04/27 03:26:09;;;;;;;;;;;2.30;99.90;;;;;;5066344;28;20336;-69
2023/04/27 03:28:35;;;;;;;;;;;2.30;99.90;;;;;;5054678;28;19924;-69
2023/04/27 03:31:05;;;;;;;;;;;2.30;99.90;;;;;;5053362;28;20296;-69
2023/04/27 03:33:30;;;;;;;;;;;2.20;99.90;;;;;;5067518;28;20027;-69
2023/04/27 03:35:56;;;;;;;;;;;2.20;99.90;;;;;;5070790;28;20410;-69
2023/04/27 03:38:22;;;;;;;;;;;2.20;99.90;;;;;;5071866;28;19932;-69
2023/04/27 03:40:47;;;;;;;;;;;2.20;99.90;;;;;;5072202;28;19978;-68
2023/04/27 03:43:13;;;;;;;;;;;2.20;99.90;;;;;;5072014;28;20019;-69
2023/04/27 03:45:38;;;;;;;;;;;2.70;99.90;;;;;;5058592;28;19951;-69
2023/04/27 03:48:04;;;;;;;;;;;2.30;99.90;;;;;;5060880;28;20383;-69
2023/04/27 03:50:30;;;;;;;;;;;2.10;99.90;;;;;;5057945;28;19947;-69
2023/04/27 03:52:55;;;;;;;;;;;2.10;99.90;;;;;;5072248;28;20374;-69
2023/04/27 03:55:21;;;;;;;;;;;2.10;99.90;;;;;;5061939;28;20027;-69
2023/04/27 03:57:46;;;;;;;;;;;2.10;99.90;;;;;;5067035;28;20358;-69
2023/04/27 04:00:13;;;;;;;;;;;2.10;99.90;;;;;;5072475;28;19924;-69
2023/04/27 04:02:39;;;;;;;;;;;2.10;99.90;;;;;;5072258;28;19928;-69
2023/04/27 04:05:04;;;;;;;;;;;2.20;99.90;;;;;;5067516;28;19929;-69
2023/04/27 04:07:30;;;;;;;;;;;2.20;99.90;;;;;;5054270;28;19924;-69
2023/04/27 04:09:55;;;;;;;;;;;2.20;99.90;;;;;;5072163;28;19931;-69
2023/04/27 04:12:21;;;;;;;;;;;2.30;99.90;;;;;;5068408;28;19928;-69
2023/04/27 04:14:47;;;;;;;;;;;2.30;99.90;;;;;;5072603;28;19971;-69
2023/04/27 04:17:13;;;;;;;;;;;2.30;99.90;;;;;;5053040;28;20382;-70
2023/04/27 04:19:39;;;;;;;;;;;2.30;99.90;;;;;;5070765;28;20010;-70
2023/04/27 04:22:04;;;;;;;;;;;2.40;99.90;;;;;;5067491;28;20378;-70
2023/04/27 04:24:30;;;;;;;;;;;2.40;99.90;;;;;;5072582;28;19986;-70
2023/04/27 04:26:55;;;;;;;;;;;2.40;99.90;;;;;;5054047;28;20448;-70
2023/04/27 04:29:22;;;;;;;;;;;2.50;99.90;;;;;;5070520;28;19925;-70
2023/04/27 04:31:47;;;;;;;;;;;2.50;99.90;;;;;;5072087;28;19925;-70
2023/04/27 04:34:14;;;;;;;;;;;2.60;99.90;;;;;;5065267;28;19925;-70
2023/04/27 04:36:40;;;;;;;;;;;2.60;99.90;;;;;;5059482;28;19940;-70
2023/04/27 04:39:06;;;;;;;;;;;2.80;99.90;;;;;;5055955;28;19928;-68
2023/04/27 04:41:31;;;;;;;;;;;2.70;99.90;;;;;;5068986;28;19924;-70
2023/04/27 04:43:57;;;;;;;;;;;2.80;99.90;;;;;;5071924;28;20017;-70
2023/04/27 04:46:26;;;;;;;;;;;2.80;99.90;;;;;;5055876;28;19935;-67
2023/04/27 04:48:52;;;;;;;;;;;2.80;99.90;;;;;;5073840;28;20001;-67
2023/04/27 04:51:17;;;;;;;;;;;2.90;99.90;;;;;;5060648;28;20362;-67
2023/04/27 04:53:43;;;;;;;;;;;2.90;99.90;;;;;;5057743;28;20023;-67
2023/04/27 04:56:12;;;;;;;;;;;2.90;99.90;;;;;;5075381;28;20014;-67
2023/04/27 04:58:38;;;;;;;;;;;2.90;99.90;;;;;;5074040;28;19968;-68
2023/04/27 05:01:04;;;;;;;;;;;3.00;99.90;;;;;;5055114;28;19971;-68
2023/04/27 05:03:29;;;;;;;;;;;3.00;99.90;;;;;;5074071;28;19971;-68
2023/04/27 05:05:55;;;;;;;;;;;3.10;99.90;;;;;;5074955;28;19924;-68
2023/04/27 05:08:20;;;;;;;;;;;3.10;99.90;;;;;;5072661;28;19924;-68
2023/04/27 05:10:49;;;;;;;;;;;3.20;99.90;;;;;;5054931;28;20384;-68
2023/04/27 05:13:15;;;;;;;;;;;3.20;99.90;;;;;;5074609;28;19928;-68
2023/04/27 05:15:40;;;;;;;;;;;3.20;99.90;;;;;;5056614;28;20075;-68
2023/04/27 05:18:06;;;;;;;;;;;3.30;99.90;;;;;;5071723;28;19924;-68
2023/04/27 05:20:35;;;;;;;;;;;3.40;99.90;;;;;;5074156;28;19932;-68
2023/04/27 05:23:01;;;;;;;;;;;3.50;99.90;;;;;;5056815;28;19932;-69
2023/04/27 05:25:30;;;;;;;;;;;3.60;99.90;;;;;;5074589;28;19924;-68
2023/04/27 05:27:55;;;;;;;;;;;3.70;99.90;;;;;;5065344;28;20326;-68
2023/04/27 05:30:21;;;;;;;;;;;4.00;99.90;;;;;;5054098;28;19977;-68
2023/04/27 05:32:46;;;;;;;;;;;4.30;99.90;;;;;;5074599;28;19932;-68
2023/04/27 05:35:12;;;;;;;;;;;4.60;99.90;;;;;;5055339;28;19925;-69
2023/04/27 05:37:37;;;;;;;;;;;4.90;99.90;;;;;;5069236;28;20040;-68
2023/04/27 05:40:04;;;;;;;;;;;5.30;99.90;;;;;;5073557;28;19991;-69
2023/04/27 05:42:30;;;;;;;;;;;5.70;99.90;;;;;;5021472;28;19931;-69
2023/04/27 05:44:56;;;;;;;;;;;6.20;99.90;;;;;;5054572;28;19924;-68
2023/04/27 05:47:21;;;;;;;;;;;6.60;99.90;;;;;;5054472;28;20319;-68
2023/04/27 05:49:51;;;;;;;;;;;7.00;99.90;;;;;;5055144;28;19925;-69
2023/04/27 05:52:17;;;;;;;;;;;7.00;99.90;;;;;;5072421;28;19931;-69
2023/04/27 05:54:46;;;;;;;;;;;7.00;99.90;;;;;;5074564;28;19925;-69
2023/04/27 05:57:11;;;;;;;;;;;7.00;99.90;;;;;;5070882;28;19924;-69
2023/04/27 05:59:37;;;;;;;;;;;6.80;99.90;;;;;;5074925;28;19931;-69
2023/04/27 06:02:02;;;;;;;;;;;6.60;99.90;;;;;;5074434;28;19925;-69
2023/04/27 06:04:28;;;;;;;;;;;6.60;99.90;;;;;;5073883;28;19924;-69
2023/04/27 06:06:55;;;;;;;;;;;6.60;99.90;;;;;;5068973;28;20292;-69
2023/04/27 06:09:20;;;;;;;;;;;6.60;99.90;;;;;;5056673;28;20398;-68
2023/04/27 06:11:46;;;;;;;;;;;6.70;99.90;;;;;;5073993;28;20039;-68
2023/04/27 06:14:12;;;;;;;;;;;6.80;99.90;;;;;;5053734;28;19925;-69
2023/04/27 06:16:39;;;;;;;;;;;6.90;99.90;;;;;;5063411;28;19986;-69
2023/04/27 06:19:05;;;;;;;;;;;7.00;99.90;;;;;;5073207;28;19949;-69
2023/04/27 06:21:31;;;;;;;;;;;7.10;99.90;;;;;;5071675;28;19931;-67
2023/04/27 06:23:57;;;;;;;;;;;7.40;99.90;;;;;;5065856;28;19925;-68
2023/04/27 06:26:22;;;;;;;;;;;8.00;99.90;;;;;;5053913;28;20153;-69
2023/04/27 06:28:48;;;;;;;;;;;8.60;99.90;;;;;;5049183;28;20054;-68
2023/04/27 06:31:14;;;;;;;;;;;9.20;99.90;;;;;;5054372;28;19925;-68
2023/04/27 06:33:40;;;;;;;;;;;9.60;99.90;;;;;;5055074;28;19925;-69
2023/04/27 06:36:05;;;;;;;;;;;9.90;99.90;;;;;;5072505;28;20011;-68
2023/04/27 06:38:31;;;;;;;;;;;10.20;99.90;;;;;;5068050;28;19964;-69
2023/04/27 06:40:56;;;;;;;;;;;10.50;99.90;;;;;;5068625;28;20298;-68
2023/04/27 06:43:22;;;;;;;;;;;10.80;99.90;;;;;;5072619;28;19954;-68
2023/04/27 06:45:47;;;;;;;;;;;10.90;99.90;;;;;;5070410;28;19925;-68
2023/04/27 06:48:13;;;;;;;;;;;10.80;99.90;;;;;;5072697;28;19924;-68
2023/04/27 06:50:38;;;;;;;;;;;10.60;99.90;;;;;;5072037;28;19951;-69
2023/04/27 06:53:04;;;;;;;;;;;10.40;99.90;;;;;;5072066;28;19925;-69
2023/04/27 06:55:29;;;;;;;;;;;10.40;99.90;;;;;;5072499;28;19924;-68
2023/04/27 06:57:55;;;;;;;;;;;10.30;99.90;;;;;;5054558;28;19940;-67
2023/04/27 07:00:20;;;;;;;;;;;10.30;99.90;;;;;;5071784;28;19931;-68
2023/04/27 07:02:46;;;;;;;;;;;10.30;99.90;;;;;;5071952;28;20054;-67
2023/04/27 07:05:15;;;;;;;;;;;10.30;99.90;;;;;;5072439;28;20074;-68
2023/04/27 07:07:40;;;;;;;;;;;10.20;99.90;;;;;;5051962;28;19925;-68
2023/04/27 07:10:06;;;;;;;;;;;10.20;99.90;;;;;;5064441;28;20290;-68
2023/04/27 07:12:32;;;;;;;;;;;10.10;99.90;;;;;;5052331;28;20297;-68
2023/04/27 07:14:57;;;;;;;;;;;10.10;99.90;;;;;;5050738;28;19925;-68
2023/04/27 07:17:23;;;;;;;;;;;10.10;99.90;;;;;;5034921;28;19944;-70
2023/04/27 07:19:48;;;;;;;;;;;10.00;99.90;;;;;;5063446;28;20299;-69
2023/04/27 07:22:14;;;;;;;;;;;10.10;99.90;;;;;;5072089;28;20416;-70
2023/04/27 07:24:40;;;;;;;;;;;10.20;99.90;;;;;;5072148;28;20408;-69
2023/04/27 07:27:07;;;;;;;;;;;10.30;99.90;;;;;;5062813;28;19925;-69
2023/04/27 07:29:32;;;;;;;;;;;10.40;99.90;;;;;;5071532;28;19951;-69
2023/04/27 07:31:58;;;;;;;;;;;10.50;99.90;;;;;;5054269;28;20018;-69
2023/04/27 07:34:23;;;;;;;;;;;10.60;99.90;;;;;;5052479;28;19932;-71
2023/04/27 07:36:52;;;;;;;;;;;10.70;99.90;;;;;;5067034;28;20015;-69
2023/04/27 07:39:18;;;;;;;;;;;10.80;99.90;;;;;;5070922;28;20053;-69
2023/04/27 07:41:45;;;;;;;;;;;10.90;99.90;;;;;;5071285;28;19928;-70
2023/04/27 07:44:11;;;;;;;;;;;11.00;99.90;;;;;;5062379;28;19932;-70
2023/04/27 07:46:37;;;;;;;;;;;11.00;99.90;;;;;;5049149;28;19935;-69
2023/04/27 07:49:03;;;;;;;;;;;11.10;99.90;;;;;;5070608;28;20180;-69
2023/04/27 07:51:28;;;;;;;;;;;11.00;99.90;;;;;;5071224;28;20014;-68
2023/04/27 07:53:54;;;;;;;;;;;11.00;99.90;;;;;;5063071;28;19925;-69
2023/04/27 07:56:20;;;;;;;;;;;10.90;99.90;;;;;;5052143;28;19936;-71
2023/04/27 07:58:46;;;;;;;;;;;11.10;99.90;;;;;;5057851;28;19925;-69
2023/04/27 08:01:11;;;;;;;;;;;11.10;99.90;;;;;;5070430;28;19931;-69
2023/04/27 08:03:37;;;;;;;;;;;11.10;99.90;;;;;;5051522;28;20259;-69
2023/04/27 08:06:03;;;;;;;;;;;11.10;99.90;;;;;;5060952;28;19932;-69
2023/04/27 08:08:28;;;;;;;;;;;11.10;99.90;;;;;;5054067;28;19928;-71
2023/04/27 08:10:54;;;;;;;;;;;11.10;99.90;;;;;;5051901;28;19994;-70
2023/04/27 08:13:20;;;;;;;;;;;11.10;99.90;;;;;;5052378;28;19975;-69
2023/04/27 08:15:45;;;;;;;;;;;11.20;99.90;;;;;;5052106;28;19928;-69
2023/04/27 08:18:11;;;;;;;;;;;11.30;99.90;;;;;;5067532;28;20355;-69
2023/04/27 08:20:36;;;;;;;;;;;11.40;99.90;;;;;;5073745;28;20294;-70
2023/04/27 08:23:02;;;;;;;;;;;11.50;99.90;;;;;;5074709;28;19924;-69
2023/04/27 08:25:27;;;;;;;;;;;11.70;99.90;;;;;;5075193;28;19979;-71
2023/04/27 08:27:53;;;;;;;;;;;11.80;99.80;;;;;;5056659;28;19931;-69
2023/04/27 08:30:18;;;;;;;;;;;11.90;99.60;;;;;;5058355;28;19924;-69
2023/04/27 08:32:44;;;;;;;;;;;12.00;98.00;;;;;;5061265;28;20392;-69
2023/04/27 08:35:10;;;;;;;;;;;12.00;98.40;;;;;;5075827;28;19931;-69
2023/04/27 08:37:36;;;;;;;;;;;12.20;98.60;;;;;;5071746;28;19924;-68
2023/04/27 08:40:03;;;;;;;;;;;12.30;98.20;;;;;;5063709;28;19929;-69
2023/04/27 08:42:30;;;;;;;;;;;12.40;98.70;;;;;;5075913;28;19924;-70
2023/04/27 08:44:56;;;;;;;;;;;12.40;98.10;;;;;;5053940;28;19932;-69
2023/04/27 08:47:21;;;;;;;;;;;12.50;97.90;;;;;;5065161;28;19928;-69
2023/04/27 08:49:47;;;;;;;;;;;12.70;98.00;;;;;;5075348;28;19985;-69
2023/04/27 08:52:12;;;;;;;;;;;12.80;96.70;;;;;;5072657;28;20007;-69
2023/04/27 08:54:38;;;;;;;;;;;12.90;96.00;;;;;;5074661;28;19993;-69
2023/04/27 08:57:14;;;;;;;;;;;13.00;97.50;;;;;;5051654;28;19932;-69
2023/04/27 08:59:39;;;;;;;;;;;13.10;96.70;;;;;;5065881;28;20012;-70
2023/04/27 09:02:05;;;;;;;;;;;13.10;94.10;;;;;;5057604;28;19963;-70
2023/04/27 09:04:37;;;;;;;;;;;13.20;96.40;;;;;;5075332;28;19925;-70
2023/04/27 09:07:10;;;;;;;;;;;13.10;94.80;;;;;;5067694;28;19983;-70
2023/04/27 09:09:35;;;;;;;;;;;13.20;94.80;;;;;;5057580;28;19930;-69
2023/04/27 09:12:01;;;;;;;;;;;13.20;94.70;;;;;;5068352;28;20016;-69
2023/04/27 09:14:27;;;;;;;;;;;13.30;95.60;;;;;;5058244;28;19924;-69
2023/04/27 09:16:56;;;;;;;;;;;13.50;93.80;;;;;;5055751;28;19932;-69
2023/04/27 09:19:25;;;;;;;;;;;13.60;93.60;;;;;;5073619;28;19931;-70
2023/04/27 09:22:01;;;;;;;;;;;13.80;93.90;;;;;;5062779;28;20303;-70
2023/04/27 09:24:27;;;;;;;;;;;13.90;93.10;;;;;;5074459;28;19959;-69
2023/04/27 09:26:52;;;;;;;;;;;14.00;93.60;;;;;;5071989;28;19964;-68
2023/04/27 09:29:18;;;;;;;;;;;14.10;92.00;;;;;;5068379;28;19935;-68
2023/04/27 09:31:43;;;;;;;;;;;14.20;92.50;;;;;;5054723;28;19932;-69
2023/04/27 09:34:09;;;;;;;;;;;14.30;92.20;;;;;;5067260;28;19932;-69
2023/04/27 09:36:35;;;;;;;;;;;14.50;92.80;;;;;;5054327;28;20397;-69
2023/04/27 09:39:04;;;;;;;;;;;14.60;89.10;;;;;;5055590;28;20313;-68
2023/04/27 09:41:30;;;;;;;;;;;14.50;90.90;;;;;;5054136;28;19925;-69
2023/04/27 09:43:56;;;;;;;;;;;14.60;91.30;;;;;;5055518;28;19925;-68
2023/04/27 09:46:22;;;;;;;;;;;14.80;91.40;;;;;;5073725;28;20428;-68
2023/04/27 09:48:49;;;;;;;;;;;14.90;89.10;;;;;;5067228;28;20111;-68
2023/04/27 09:51:15;;;;;;;;;;;14.80;88.80;;;;;;5054623;28;20007;-68
2023/04/27 09:53:55;;;;;;;;;;;14.80;86.50;;;;;;5073151;28;20011;-69
2023/04/27 09:56:44;;;;;;;;;;;14.70;89.40;;;;;;5055098;28;19924;-69
2023/04/27 09:59:09;;;;;;;;;;;14.60;85.10;;;;;;5070356;28;19924;-69
2023/04/27 10:01:42;;;;;;;;;;;14.20;86.60;;;;;;5054475;28;19924;-69
2023/04/27 10:04:20;;;;;;;;;;;13.80;87.50;;;;;;5040667;28;20394;-69
2023/04/27 10:06:51;;;;;;;;;;;13.70;90.80;;;;;;5053457;28;19925;-68
2023/04/27 10:09:24;;;;;;;;;;;13.60;90.30;;;;;;5068646;28;19924;-69
2023/04/27 10:11:51;;;;;;;;;;;13.60;90.30;;;;;;5073564;28;19931;-69
2023/04/27 10:14:17;;;;;;;;;;;13.50;90.40;;;;;;5055139;28;19928;-69
2023/04/27 10:16:45;;;;;;;;;;;13.40;90.40;;;;;;5073626;28;19924;-68
2023/04/27 10:19:10;;;;;;;;;;;13.20;89.70;;;;;;5072172;28;20362;-69
2023/04/27 10:21:37;;;;;;;;;;;12.90;89.50;;;;;;5054535;28;19940;-69
2023/04/27 10:24:07;;;;;;;;;;;12.80;90.10;;;;;;5064412;28;19932;-69
2023/04/27 10:26:33;;;;;;;;;;;12.70;91.60;;;;;;5073445;28;20023;-69
2023/04/27 10:29:08;;;;;;;;;;;12.70;91.30;;;;;;5071940;28;20026;-69
2023/04/27 10:31:33;;;;;;;;;;;12.60;91.20;;;;;;5072095;28;19924;-69
2023/04/27 10:34:07;;;;;;;;;;;12.50;90.80;;;;;;5072956;28;19925;-69
2023/04/27 10:36:33;;;;;;;;;;;12.40;91.80;;;;;;5071941;28;19932;-70
2023/04/27 10:38:59;;;;;;;;;;;12.50;92.60;;;;;;5062075;28;19924;-71
2023/04/27 10:41:32;;;;;;;;;;;12.60;92.70;;;;;;5072717;28;20028;-68
2023/04/27 10:44:12;;;;;;;;;;;12.70;91.10;;;;;;5037913;28;20286;-68
2023/04/27 10:46:48;;;;;;;;;;;12.70;91.80;;;;;;5052124;28;19928;-69
2023/04/27 10:49:14;;;;;;;;;;;12.80;91.30;;;;;;5070796;28;19928;-69
2023/04/27 10:51:40;;;;;;;;;;;13.00;92.60;;;;;;5073129;28;19924;-69
2023/04/27 10:54:05;;;;;;;;;;;13.20;92.80;;;;;;5068268;28;19924;-69
2023/04/27 10:56:32;;;;;;;;;;;13.60;91.10;;;;;;5053133;28;20018;-69
2023/04/27 10:59:04;;;;;;;;;;;13.80;91.00;;;;;;5062568;28;19924;-70
2023/04/27 11:01:29;;;;;;;;;;;14.00;87.50;;;;;;5071956;28;20296;-69
2023/04/27 11:03:56;;;;;;;;;;;14.00;86.00;;;;;;5057279;28;19931;-69
2023/04/27 11:06:21;;;;;;;;;;;13.90;89.30;;;;;;5067900;28;20348;-69
2023/04/27 11:08:47;;;;;;;;;;;14.00;90.40;;;;;;5055299;28;19928;-69
2023/04/27 11:11:13;;;;;;;;;;;14.10;88.50;;;;;;5072636;28;19924;-69
2023/04/27 11:13:39;;;;;;;;;;;14.30;88.00;;;;;;5054743;28;20362;-69
2023/04/27 11:16:05;;;;;;;;;;;14.20;87.90;;;;;;5067569;28;19995;-70
2023/04/27 11:18:32;;;;;;;;;;;14.30;86.50;;;;;;5052251;28;20353;-69
2023/04/27 11:21:17;;;;;;;;;;;14.10;86.60;;;;;;5052574;28;20003;-69
2023/04/27 11:23:42;;;;;;;;;;;14.00;85.80;;;;;;5071465;28;19925;-69
2023/04/27 11:26:13;;;;;;;;;;;13.90;85.40;;;;;;5072832;28;19932;-68
2023/04/27 11:28:43;;;;;;;;;;;13.60;89.00;;;;;;5071848;28;19938;-68
2023/04/27 11:31:10;;;;;;;;;;;13.40;87.50;;;;;;5069849;28;20011;-68
2023/04/27 11:33:38;;;;;;;;;;;13.20;89.10;;;;;;5066782;28;19931;-69
2023/04/27 11:36:14;;;;;;;;;;;12.90;90.10;;;;;;5071497;28;19924;-68
2023/04/27 11:38:40;;;;;;;;;;;12.90;89.70;;;;;;5072048;28;19924;-69
2023/04/27 11:41:06;;;;;;;;;;;12.90;89.10;;;;;;5071117;28;20400;-68
2023/04/27 11:43:32;;;;;;;;;;;12.70;89.30;;;;;;5072191;28;19925;-69
2023/04/27 11:46:02;;;;;;;;;;;12.50;90.50;;;;;;5054000;28;19925;-68
2023/04/27 11:48:27;;;;;;;;;;;12.40;90.60;;;;;;5072113;28;19948;-68
2023/04/27 11:50:57;;;;;;;;;;;12.20;90.60;;;;;;5071504;28;20286;-68
2023/04/27 11:53:33;;;;;;;;;;;12.10;91.10;;;;;;5072164;28;19939;-69
2023/04/27 11:56:09;;;;;;;;;;;12.10;91.00;;;;;;5066237;28;19925;-68
2023/04/27 11:58:36;;;;;;;;;;;11.90;91.50;;;;;;5060850;28;19947;-69
2023/04/27 12:01:03;;;;;;;;;;;11.90;91.60;;;;;;5074921;28;19924;-69
2023/04/27 12:03:29;;;;;;;;;;;11.80;91.50;;;;;;5075647;28;19925;-68
2023/04/27 12:05:55;;;;;;;;;;;11.80;92.00;;;;;;5075848;28;19928;-68
2023/04/27 12:08:20;;;;;;;;;;;11.80;94.80;;;;;;5075692;28;19925;-69
2023/04/27 12:10:46;;;;;;;;;;;11.50;96.20;;;;;;5074411;28;19978;-69
2023/04/27 12:13:11;;;;;;;;;;;11.40;98.10;;;;;;5067556;28;19932;-69
2023/04/27 12:15:37;;;;;;;;;;;11.30;99.30;;;;;;5055740;28;20278;-69
2023/04/27 12:18:03;;;;;;;;;;;11.30;99.90;;;;;;5068210;28;19930;-69
2023/04/27 12:20:29;;;;;;;;;;;11.20;99.90;;;;;;5056603;28;19927;-70
2023/04/27 12:22:56;;;;;;;;;;;11.10;99.90;;;;;;5046618;28;20389;-69
2023/04/27 12:25:21;;;;;;;;;;;11.10;99.90;;;;;;5068582;28;20362;-69
2023/04/27 12:27:48;;;;;;;;;;;11.20;99.90;;;;;;5073569;28;19966;-68
2023/04/27 12:30:13;;;;;;;;;;;11.40;99.90;;;;;;5070992;28;19970;-68
2023/04/27 12:32:39;;;;;;;;;;;11.70;99.90;;;;;;5075481;28;20335;-69
2023/04/27 12:35:05;;;;;;;;;;;12.10;99.90;;;;;;5074994;28;20016;-69
2023/04/27 12:37:31;;;;;;;;;;;12.50;99.90;;;;;;5074396;28;20000;-69
2023/04/27 12:39:56;;;;;;;;;;;12.60;99.90;;;;;;5073219;28;19936;-73
2023/04/27 12:42:23;;;;;;;;;;;12.70;99.90;;;;;;5074776;28;19932;-70
2023/04/27 12:44:49;;;;;;;;;;;12.80;99.90;;;;;;5075824;28;19932;-70
2023/04/27 12:47:16;;;;;;;;;;;13.10;99.90;;;;;;5074676;28;20003;-70
2023/04/27 12:49:41;;;;;;;;;;;13.50;99.90;;;;;;5069539;28;20293;-70
2023/04/27 12:52:07;;;;;;;;;;;13.80;99.90;;;;;;5064083;28;20028;-71
2023/04/27 12:54:32;;;;;;;;;;;13.90;98.20;;;;;;5042558;28;19924;-70
2023/04/27 12:57:01;;;;;;;;;;;14.10;98.20;;;;;;5074379;28;20011;-70
2023/04/27 12:59:27;;;;;;;;;;;14.40;97.80;;;;;;5056037;28;19932;-70
2023/04/27 13:01:54;;;;;;;;;;;14.50;97.40;;;;;;5067275;28;19924;-70
2023/04/27 13:04:19;;;;;;;;;;;14.80;96.70;;;;;;5056301;28;20305;-70
2023/04/27 13:06:45;;;;;;;;;;;15.00;95.70;;;;;;5074369;28;19928;-70
2023/04/27 13:09:12;;;;;;;;;;;15.00;95.20;;;;;;5069038;28;19981;-70
2023/04/27 13:11:37;;;;;;;;;;;14.90;95.60;;;;;;5073807;28;19925;-70
2023/04/27 13:14:04;;;;;;;;;;;14.90;93.80;;;;;;5075009;28;20285;-70
2023/04/27 13:16:29;;;;;;;;;;;14.40;94.70;;;;;;5073769;28;20059;-70
2023/04/27 13:18:55;;;;;;;;;;;14.10;94.20;;;;;;5074256;28;19986;-69
2023/04/27 13:21:21;;;;;;;;;;;13.90;94.60;;;;;;5074783;28;19930;-70
2023/04/27 13:23:47;;;;;;;;;;;13.70;96.00;;;;;;5055261;28;19968;-69
2023/04/27 13:26:13;;;;;;;;;;;13.70;96.30;;;;;;5059868;28;20270;-70
2023/04/27 13:28:39;;;;;;;;;;;13.60;96.20;;;;;;5055795;28;19925;-69
2023/04/27 13:31:04;;;;;;;;;;;13.50;96.40;;;;;;5064695;28;19994;-69
2023/04/27 13:33:31;;;;;;;;;;;12.90;97.30;;;;;;5074835;28;19946;-69
2023/04/27 13:35:56;;;;;;;;;;;12.90;97.90;;;;;;5073580;28;19994;-70
2023/04/27 13:38:22;;;;;;;;;;;12.90;97.00;;;;;;5053950;28;19928;-69
2023/04/27 13:40:47;;;;;;;;;;;12.80;97.30;;;;;;5074340;28;20350;-71
2023/04/27 13:43:13;;;;;;;;;;;12.60;97.00;;;;;;5054913;28;19924;-69
2023/04/27 13:45:41;;;;;;;;;;;12.40;97.40;;;;;;5054237;28;20012;-69
2023/04/27 13:48:06;;;;;;;;;;;12.20;98.10;;;;;;5057212;28;19924;-70
2023/04/27 13:50:32;;;;;;;;;;;12.20;97.50;;;;;;5056143;28;19925;-70
2023/04/27 13:52:57;;;;;;;;;;;12.20;97.40;;;;;;5074676;28;20305;-70
2023/04/27 13:55:23;;;;;;;;;;;12.10;97.20;;;;;;5061303;28;19925;-70
2023/04/27 13:57:48;;;;;;;;;;;12.10;97.20;;;;;;5067660;28;20462;-70
2023/04/27 14:00:14;;;;;;;;;;;12.20;97.30;;;;;;5069637;28;19931;-69
2023/04/27 14:02:40;;;;;;;;;;;12.30;96.60;;;;;;5036196;28;19925;-69
2023/04/27 14:05:05;;;;;;;;;;;12.20;96.50;;;;;;5054355;28;19932;-70
2023/04/27 14:07:33;;;;;;;;;;;12.20;96.40;;;;;;5065317;28;19925;-70
2023/04/27 14:09:58;;;;;;;;;;;12.20;96.40;;;;;;5074029;28;19931;-69
2023/04/27 14:12:24;;;;;;;;;;;12.20;96.60;;;;;;5072898;28;20392;-68
2023/04/27 14:14:50;;;;;;;;;;;12.20;96.70;;;;;;5073842;28;19970;-69
2023/04/27 14:17:16;;;;;;;;;;;12.40;97.80;;;;;;5055762;28;19925;-68
2023/04/27 14:19:41;;;;;;;;;;;12.50;97.80;;;;;;5069971;28;19994;-73